sensor_id;sensor_type;location;lat;lon;timestamp;P1;durP1;ratioP1;P2;durP2;ratioP2
58460;SDS011;45558;37.752;-97.822;2023-10-31T00:01:14;20.92;;;13.30;;
58460;SDS011;45558;37.752;-97.822;2023-10-31T00:03:40;19.10;;;12.07;;
58460;SDS011;45558;37.752;-97.822;2023-10-31T00:06:07;25.65;;;14.50;;
58460;SDS011;45558;37.752;-97.822;2023-10-31T00:08:33;20.08;;;12.48;;
58460;SDS011;45558;37.752;-97.822;2023-10-31T00:10:58;21.08;;;12.82;;
58460;SDS011;45558;37.752;-97.822;2023-10-31T00:13:23;16.48;;;11.95;;
58460;SDS011;45558;37.752;-97.822;2023-10-31T00:15:49;19.17;;;11.75;;
58460;SDS011;45558;37.752;-97.822;2023-10-31T00:18:14;20.05;;;11.45;;
58460;SDS011;45558;37.752;-97.822;2023-10-31T00:20:40;23.77;;;12.15;;
58460;SDS011;45558;37.752;-97.822;2023-10-31T00:23:05;22.90;;;12.70;;
58460;SDS011;45558;37.752;-97.822;2023-10-31T00:25:31;22.70;;;12.80;;
58460;SDS011;45558;37.752;-97.822;2023-10-31T00:27:56;19.08;;;11.63;;
58460;SDS011;45558;37.752;-97.822;2023-10-31T00:30:21;21.90;;;14.27;;
58460;SDS011;45558;37.752;-97.822;2023-10-31T00:32:47;19.30;;;12.07;;
58460;SDS011;45558;37.752;-97.822;2023-10-31T00:35:12;18.52;;;12.00;;
58460;SDS011;45558;37.752;-97.822;2023-10-31T00:37:38;20.65;;;12.88;;
58460;SDS011;45558;37.752;-97.822;2023-10-31T00:40:05;21.48;;;12.27;;
58460;SDS011;45558;37.752;-97.822;2023-10-31T00:42:31;20.10;;;12.15;;
58460;SDS011;45558;37.752;-97.822;2023-10-31T00:44:57;16.40;;;11.32;;
58460;SDS011;45558;37.752;-97.822;2023-10-31T00:47:22;19.08;;;10.80;;
58460;SDS011;45558;37.752;-97.822;2023-10-31T00:49:48;22.58;;;11.48;;
58460;SDS011;45558;37.752;-97.822;2023-10-31T00:52:13;22.13;;;12.18;;
58460;SDS011;45558;37.752;-97.822;2023-10-31T00:54:39;19.15;;;11.07;;
58460;SDS011;45558;37.752;-97.822;2023-10-31T00:57:04;19.35;;;11.75;;
58460;SDS011;45558;37.752;-97.822;2023-10-31T00:59:29;17.38;;;10.25;;
58460;SDS011;45558;37.752;-97.822;2023-10-31T01:01:55;31.02;;;13.73;;
58460;SDS011;45558;37.752;-97.822;2023-10-31T01:04:20;29.50;;;12.88;;
58460;SDS011;45558;37.752;-97.822;2023-10-31T01:06:46;29.77;;;13.00;;
58460;SDS011;45558;37.752;-97.822;2023-10-31T01:09:11;38.13;;;13.57;;
58460;SDS011;45558;37.752;-97.822;2023-10-31T01:11:38;33.47;;;12.90;;
58460;SDS011;45558;37.752;-97.822;2023-10-31T01:14:03;43.85;;;13.75;;
58460;SDS011;45558;37.752;-97.822;2023-10-31T01:16:29;38.70;;;12.88;;
58460;SDS011;45558;37.752;-97.822;2023-10-31T01:18:54;64.97;;;12.82;;
58460;SDS011;45558;37.752;-97.822;2023-10-31T01:21:20;38.15;;;13.60;;
58460;SDS011;45558;37.752;-97.822;2023-10-31T01:23:45;63.88;;;13.52;;
58460;SDS011;45558;37.752;-97.822;2023-10-31T01:26:10;83.30;;;14.25;;
58460;SDS011;45558;37.752;-97.822;2023-10-31T01:28:36;105.70;;;14.15;;
58460;SDS011;45558;37.752;-97.822;2023-10-31T01:31:01;162.57;;;15.20;;
58460;SDS011;45558;37.752;-97.822;2023-10-31T01:33:27;144.25;;;15.48;;
58460;SDS011;45558;37.752;-97.822;2023-10-31T01:35:52;208.07;;;20.77;;
58460;SDS011;45558;37.752;-97.822;2023-10-31T01:38:18;143.55;;;16.58;;
58460;SDS011;45558;37.752;-97.822;2023-10-31T01:40:43;104.60;;;13.40;;
58460;SDS011;45558;37.752;-97.822;2023-10-31T01:43:09;105.85;;;15.13;;
58460;SDS011;45558;37.752;-97.822;2023-10-31T01:45:34;122.55;;;17.33;;
58460;SDS011;45558;37.752;-97.822;2023-10-31T01:47:59;168.43;;;16.63;;
58460;SDS011;45558;37.752;-97.822;2023-10-31T01:50:25;273.85;;;20.73;;
58460;SDS011;45558;37.752;-97.822;2023-10-31T01:52:51;169.45;;;19.27;;
58460;SDS011;45558;37.752;-97.822;2023-10-31T01:55:17;139.52;;;15.35;;
58460;SDS011;45558;37.752;-97.822;2023-10-31T01:57:43;246.68;;;20.95;;
58460;SDS011;45558;37.752;-97.822;2023-10-31T02:00:10;127.32;;;17.10;;
58460;SDS011;45558;37.752;-97.822;2023-10-31T02:02:35;128.55;;;16.80;;
58460;SDS011;45558;37.752;-97.822;2023-10-31T02:05:02;123.53;;;16.00;;
58460;SDS011;45558;37.752;-97.822;2023-10-31T02:07:30;192.38;;;17.35;;
58460;SDS011;45558;37.752;-97.822;2023-10-31T02:09:56;242.55;;;20.50;;
58460;SDS011;45558;37.752;-97.822;2023-10-31T02:12:35;89.43;;;15.63;;
58460;SDS011;45558;37.752;-97.822;2023-10-31T02:15:01;64.75;;;13.82;;
58460;SDS011;45558;37.752;-97.822;2023-10-31T02:17:27;48.40;;;12.77;;
58460;SDS011;45558;37.752;-97.822;2023-10-31T02:19:53;55.35;;;13.32;;
58460;SDS011;45558;37.752;-97.822;2023-10-31T02:22:19;58.35;;;13.85;;
58460;SDS011;45558;37.752;-97.822;2023-10-31T02:24:44;22.25;;;11.68;;
58460;SDS011;45558;37.752;-97.822;2023-10-31T02:27:10;18.98;;;11.00;;
58460;SDS011;45558;37.752;-97.822;2023-10-31T02:29:35;32.70;;;10.98;;
58460;SDS011;45558;37.752;-97.822;2023-10-31T02:32:00;45.22;;;11.38;;
58460;SDS011;45558;37.752;-97.822;2023-10-31T02:34:26;18.25;;;10.20;;
58460;SDS011;45558;37.752;-97.822;2023-10-31T02:36:51;19.83;;;10.00;;
58460;SDS011;45558;37.752;-97.822;2023-10-31T02:39:17;17.27;;;10.25;;
58460;SDS011;45558;37.752;-97.822;2023-10-31T02:41:42;15.95;;;9.57;;
58460;SDS011;45558;37.752;-97.822;2023-10-31T02:44:08;15.65;;;9.50;;
58460;SDS011;45558;37.752;-97.822;2023-10-31T02:46:37;15.63;;;10.15;;
58460;SDS011;45558;37.752;-97.822;2023-10-31T02:49:03;20.65;;;10.35;;
58460;SDS011;45558;37.752;-97.822;2023-10-31T02:51:28;20.17;;;9.32;;
58460;SDS011;45558;37.752;-97.822;2023-10-31T02:53:53;22.50;;;9.32;;
58460;SDS011;45558;37.752;-97.822;2023-10-31T02:56:19;25.98;;;10.27;;
58460;SDS011;45558;37.752;-97.822;2023-10-31T02:58:44;27.75;;;9.93;;
58460;SDS011;45558;37.752;-97.822;2023-10-31T03:01:10;17.50;;;9.73;;
58460;SDS011;45558;37.752;-97.822;2023-10-31T03:03:36;25.23;;;10.48;;
58460;SDS011;45558;37.752;-97.822;2023-10-31T03:06:01;18.95;;;9.55;;
58460;SDS011;45558;37.752;-97.822;2023-10-31T03:08:27;20.33;;;10.25;;
58460;SDS011;45558;37.752;-97.822;2023-10-31T03:10:53;15.63;;;9.60;;
58460;SDS011;45558;37.752;-97.822;2023-10-31T03:13:18;18.75;;;10.23;;
58460;SDS011;45558;37.752;-97.822;2023-10-31T03:15:45;16.63;;;9.70;;
58460;SDS011;45558;37.752;-97.822;2023-10-31T03:18:10;21.05;;;10.25;;
58460;SDS011;45558;37.752;-97.822;2023-10-31T03:20:36;15.93;;;10.48;;
58460;SDS011;45558;37.752;-97.822;2023-10-31T03:23:01;20.35;;;10.95;;
58460;SDS011;45558;37.752;-97.822;2023-10-31T03:25:28;25.63;;;10.77;;
58460;SDS011;45558;37.752;-97.822;2023-10-31T03:27:54;18.55;;;12.18;;
58460;SDS011;45558;37.752;-97.822;2023-10-31T03:30:19;18.25;;;10.98;;
58460;SDS011;45558;37.752;-97.822;2023-10-31T03:32:45;23.83;;;11.38;;
58460;SDS011;45558;37.752;-97.822;2023-10-31T03:35:10;36.08;;;12.20;;
58460;SDS011;45558;37.752;-97.822;2023-10-31T03:37:35;97.88;;;14.90;;
58460;SDS011;45558;37.752;-97.822;2023-10-31T03:40:01;76.55;;;15.65;;
58460;SDS011;45558;37.752;-97.822;2023-10-31T03:42:26;89.95;;;17.27;;
58460;SDS011;45558;37.752;-97.822;2023-10-31T03:44:52;161.25;;;18.98;;
58460;SDS011;45558;37.752;-97.822;2023-10-31T03:47:17;206.88;;;19.40;;
58460;SDS011;45558;37.752;-97.822;2023-10-31T03:49:42;182.68;;;17.55;;
58460;SDS011;45558;37.752;-97.822;2023-10-31T03:52:08;90.43;;;14.60;;
58460;SDS011;45558;37.752;-97.822;2023-10-31T03:54:33;74.82;;;13.38;;
58460;SDS011;45558;37.752;-97.822;2023-10-31T03:56:59;25.58;;;11.23;;
58460;SDS011;45558;37.752;-97.822;2023-10-31T03:59:24;28.05;;;11.45;;
58460;SDS011;45558;37.752;-97.822;2023-10-31T04:01:49;29.10;;;11.07;;
58460;SDS011;45558;37.752;-97.822;2023-10-31T04:04:15;20.00;;;9.93;;
58460;SDS011;45558;37.752;-97.822;2023-10-31T04:06:40;24.77;;;9.32;;
58460;SDS011;45558;37.752;-97.822;2023-10-31T04:09:07;71.57;;;10.73;;
58460;SDS011;45558;37.752;-97.822;2023-10-31T04:11:32;34.42;;;9.70;;
58460;SDS011;45558;37.752;-97.822;2023-10-31T04:13:58;68.05;;;10.90;;
58460;SDS011;45558;37.752;-97.822;2023-10-31T04:16:23;62.08;;;16.73;;
58460;SDS011;45558;37.752;-97.822;2023-10-31T04:18:48;48.00;;;11.20;;
58460;SDS011;45558;37.752;-97.822;2023-10-31T04:21:14;46.45;;;10.05;;
58460;SDS011;45558;37.752;-97.822;2023-10-31T04:23:40;84.57;;;10.20;;
58460;SDS011;45558;37.752;-97.822;2023-10-31T04:26:05;164.85;;;10.63;;
58460;SDS011;45558;37.752;-97.822;2023-10-31T04:28:31;233.25;;;14.32;;
58460;SDS011;45558;37.752;-97.822;2023-10-31T04:30:56;109.05;;;9.60;;
58460;SDS011;45558;37.752;-97.822;2023-10-31T04:33:21;144.23;;;10.73;;
58460;SDS011;45558;37.752;-97.822;2023-10-31T04:35:47;146.57;;;12.82;;
58460;SDS011;45558;37.752;-97.822;2023-10-31T04:38:12;228.60;;;14.18;;
58460;SDS011;45558;37.752;-97.822;2023-10-31T04:40:37;193.73;;;14.32;;
58460;SDS011;45558;37.752;-97.822;2023-10-31T04:43:03;243.50;;;16.55;;
58460;SDS011;45558;37.752;-97.822;2023-10-31T04:45:28;257.77;;;14.38;;
58460;SDS011;45558;37.752;-97.822;2023-10-31T04:47:54;413.35;;;21.08;;
58460;SDS011;45558;37.752;-97.822;2023-10-31T04:50:19;277.52;;;14.40;;
58460;SDS011;45558;37.752;-97.822;2023-10-31T04:52:45;527.97;;;20.95;;
58460;SDS011;45558;37.752;-97.822;2023-10-31T04:55:10;391.08;;;16.90;;
58460;SDS011;45558;37.752;-97.822;2023-10-31T04:57:35;534.88;;;20.13;;
58460;SDS011;45558;37.752;-97.822;2023-10-31T05:00:01;443.58;;;17.30;;
58460;SDS011;45558;37.752;-97.822;2023-10-31T05:02:28;328.15;;;17.63;;
58460;SDS011;45558;37.752;-97.822;2023-10-31T05:04:54;249.23;;;13.65;;
58460;SDS011;45558;37.752;-97.822;2023-10-31T05:07:20;158.07;;;10.65;;
58460;SDS011;45558;37.752;-97.822;2023-10-31T05:09:45;320.33;;;12.40;;
58460;SDS011;45558;37.752;-97.822;2023-10-31T05:12:11;330.38;;;12.23;;
58460;SDS011;45558;37.752;-97.822;2023-10-31T05:14:36;322.70;;;13.40;;
58460;SDS011;45558;37.752;-97.822;2023-10-31T05:17:02;309.33;;;12.75;;
58460;SDS011;45558;37.752;-97.822;2023-10-31T05:19:27;244.48;;;9.63;;
58460;SDS011;45558;37.752;-97.822;2023-10-31T05:21:52;246.13;;;10.15;;
58460;SDS011;45558;37.752;-97.822;2023-10-31T05:24:18;133.40;;;8.38;;
58460;SDS011;45558;37.752;-97.822;2023-10-31T05:26:43;221.50;;;10.05;;
58460;SDS011;45558;37.752;-97.822;2023-10-31T05:29:09;158.45;;;8.45;;
58460;SDS011;45558;37.752;-97.822;2023-10-31T05:31:35;86.25;;;7.47;;
58460;SDS011;45558;37.752;-97.822;2023-10-31T05:34:01;79.68;;;6.47;;
58460;SDS011;45558;37.752;-97.822;2023-10-31T05:36:26;175.30;;;8.35;;
58460;SDS011;45558;37.752;-97.822;2023-10-31T05:38:53;146.40;;;7.93;;
58460;SDS011;45558;37.752;-97.822;2023-10-31T05:41:18;83.00;;;6.55;;
58460;SDS011;45558;37.752;-97.822;2023-10-31T05:43:44;136.95;;;11.13;;
58460;SDS011;45558;37.752;-97.822;2023-10-31T05:46:09;182.00;;;8.82;;
58460;SDS011;45558;37.752;-97.822;2023-10-31T05:48:38;292.38;;;11.27;;
58460;SDS011;45558;37.752;-97.822;2023-10-31T05:51:04;223.35;;;10.80;;
58460;SDS011;45558;37.752;-97.822;2023-10-31T05:53:39;130.75;;;7.28;;
58460;SDS011;45558;37.752;-97.822;2023-10-31T05:56:05;160.38;;;6.85;;
58460;SDS011;45558;37.752;-97.822;2023-10-31T05:58:32;89.65;;;5.85;;
58460;SDS011;45558;37.752;-97.822;2023-10-31T06:00:58;72.22;;;9.02;;
58460;SDS011;45558;37.752;-97.822;2023-10-31T06:03:23;37.70;;;5.25;;
58460;SDS011;45558;37.752;-97.822;2023-10-31T06:05:49;63.63;;;5.57;;
58460;SDS011;45558;37.752;-97.822;2023-10-31T06:08:14;39.83;;;5.60;;
58460;SDS011;45558;37.752;-97.822;2023-10-31T06:10:39;68.55;;;6.15;;
58460;SDS011;45558;37.752;-97.822;2023-10-31T06:13:05;65.65;;;6.60;;
58460;SDS011;45558;37.752;-97.822;2023-10-31T06:15:30;36.58;;;5.93;;
58460;SDS011;45558;37.752;-97.822;2023-10-31T06:17:56;48.75;;;5.50;;
58460;SDS011;45558;37.752;-97.822;2023-10-31T06:20:21;66.13;;;5.63;;
58460;SDS011;45558;37.752;-97.822;2023-10-31T06:22:47;64.90;;;5.95;;
58460;SDS011;45558;37.752;-97.822;2023-10-31T06:25:12;93.57;;;7.60;;
58460;SDS011;45558;37.752;-97.822;2023-10-31T06:27:38;96.25;;;10.73;;
58460;SDS011;45558;37.752;-97.822;2023-10-31T06:30:03;120.80;;;8.75;;
58460;SDS011;45558;37.752;-97.822;2023-10-31T06:32:29;155.20;;;8.85;;
58460;SDS011;45558;37.752;-97.822;2023-10-31T06:34:54;288.27;;;10.65;;
58460;SDS011;45558;37.752;-97.822;2023-10-31T06:37:20;221.90;;;9.50;;
58460;SDS011;45558;37.752;-97.822;2023-10-31T06:39:46;346.45;;;25.52;;
58460;SDS011;45558;37.752;-97.822;2023-10-31T06:42:11;278.52;;;12.00;;
58460;SDS011;45558;37.752;-97.822;2023-10-31T06:44:36;188.13;;;10.73;;
58460;SDS011;45558;37.752;-97.822;2023-10-31T06:47:02;133.55;;;9.45;;
58460;SDS011;45558;37.752;-97.822;2023-10-31T06:49:27;186.93;;;10.32;;
58460;SDS011;45558;37.752;-97.822;2023-10-31T06:51:53;123.18;;;8.05;;
58460;SDS011;45558;37.752;-97.822;2023-10-31T06:54:18;93.07;;;7.10;;
58460;SDS011;45558;37.752;-97.822;2023-10-31T06:56:44;102.40;;;7.00;;
58460;SDS011;45558;37.752;-97.822;2023-10-31T06:59:10;53.00;;;7.85;;
58460;SDS011;45558;37.752;-97.822;2023-10-31T07:01:35;27.77;;;8.10;;
58460;SDS011;45558;37.752;-97.822;2023-10-31T07:04:01;74.82;;;9.18;;
58460;SDS011;45558;37.752;-97.822;2023-10-31T07:06:26;95.43;;;9.43;;
58460;SDS011;45558;37.752;-97.822;2023-10-31T07:08:51;60.17;;;10.50;;
58460;SDS011;45558;37.752;-97.822;2023-10-31T07:11:17;99.88;;;12.73;;
58460;SDS011;45558;37.752;-97.822;2023-10-31T07:13:42;103.65;;;14.93;;
58460;SDS011;45558;37.752;-97.822;2023-10-31T07:16:09;118.70;;;14.90;;
58460;SDS011;45558;37.752;-97.822;2023-10-31T07:18:34;176.57;;;15.05;;
58460;SDS011;45558;37.752;-97.822;2023-10-31T07:21:00;316.10;;;17.10;;
58460;SDS011;45558;37.752;-97.822;2023-10-31T07:23:25;177.52;;;12.23;;
58460;SDS011;45558;37.752;-97.822;2023-10-31T07:25:51;293.83;;;19.20;;
58460;SDS011;45558;37.752;-97.822;2023-10-31T07:28:16;228.27;;;13.13;;
58460;SDS011;45558;37.752;-97.822;2023-10-31T07:30:42;273.13;;;12.52;;
58460;SDS011;45558;37.752;-97.822;2023-10-31T07:33:08;403.83;;;13.82;;
58460;SDS011;45558;37.752;-97.822;2023-10-31T07:35:33;453.70;;;15.48;;
58460;SDS011;45558;37.752;-97.822;2023-10-31T07:37:58;186.63;;;13.60;;
58460;SDS011;45558;37.752;-97.822;2023-10-31T07:40:24;241.85;;;14.95;;
58460;SDS011;45558;37.752;-97.822;2023-10-31T07:42:49;256.95;;;13.18;;
58460;SDS011;45558;37.752;-97.822;2023-10-31T07:45:16;220.82;;;11.25;;
58460;SDS011;45558;37.752;-97.822;2023-10-31T07:47:41;193.52;;;11.45;;
58460;SDS011;45558;37.752;-97.822;2023-10-31T07:50:07;154.75;;;10.75;;
58460;SDS011;45558;37.752;-97.822;2023-10-31T07:52:33;246.95;;;10.70;;
58460;SDS011;45558;37.752;-97.822;2023-10-31T07:54:58;207.18;;;10.00;;
58460;SDS011;45558;37.752;-97.822;2023-10-31T07:57:23;91.40;;;7.60;;
58460;SDS011;45558;37.752;-97.822;2023-10-31T07:59:52;131.45;;;8.02;;
58460;SDS011;45558;37.752;-97.822;2023-10-31T08:02:17;82.72;;;7.00;;
58460;SDS011;45558;37.752;-97.822;2023-10-31T08:04:42;79.22;;;8.27;;
58460;SDS011;45558;37.752;-97.822;2023-10-31T08:07:08;93.20;;;9.23;;
58460;SDS011;45558;37.752;-97.822;2023-10-31T08:09:36;38.03;;;6.25;;
58460;SDS011;45558;37.752;-97.822;2023-10-31T08:12:02;64.35;;;6.70;;
58460;SDS011;45558;37.752;-97.822;2023-10-31T08:14:29;45.40;;;6.00;;
58460;SDS011;45558;37.752;-97.822;2023-10-31T08:16:56;133.95;;;7.78;;
58460;SDS011;45558;37.752;-97.822;2023-10-31T08:19:21;104.72;;;7.60;;
58460;SDS011;45558;37.752;-97.822;2023-10-31T08:21:47;83.68;;;6.38;;
58460;SDS011;45558;37.752;-97.822;2023-10-31T08:24:12;41.17;;;6.47;;
58460;SDS011;45558;37.752;-97.822;2023-10-31T08:26:38;42.55;;;5.07;;
58460;SDS011;45558;37.752;-97.822;2023-10-31T08:29:04;31.13;;;4.25;;
58460;SDS011;45558;37.752;-97.822;2023-10-31T08:31:33;13.85;;;4.28;;
58460;SDS011;45558;37.752;-97.822;2023-10-31T08:33:58;7.85;;;4.50;;
58460;SDS011;45558;37.752;-97.822;2023-10-31T08:36:23;12.80;;;4.20;;
58460;SDS011;45558;37.752;-97.822;2023-10-31T08:38:49;14.70;;;4.35;;
58460;SDS011;45558;37.752;-97.822;2023-10-31T08:41:16;5.63;;;3.80;;
58460;SDS011;45558;37.752;-97.822;2023-10-31T08:43:45;4.88;;;3.83;;
58460;SDS011;45558;37.752;-97.822;2023-10-31T08:46:14;6.65;;;3.92;;
58460;SDS011;45558;37.752;-97.822;2023-10-31T08:48:40;10.65;;;5.22;;
58460;SDS011;45558;37.752;-97.822;2023-10-31T08:51:05;6.97;;;4.38;;
58460;SDS011;45558;37.752;-97.822;2023-10-31T08:53:33;15.60;;;10.13;;
58460;SDS011;45558;37.752;-97.822;2023-10-31T08:55:58;7.28;;;5.45;;
58460;SDS011;45558;37.752;-97.822;2023-10-31T08:58:23;10.82;;;5.90;;
58460;SDS011;45558;37.752;-97.822;2023-10-31T09:00:51;9.75;;;4.68;;
58460;SDS011;45558;37.752;-97.822;2023-10-31T09:03:16;5.82;;;3.83;;
58460;SDS011;45558;37.752;-97.822;2023-10-31T09:05:43;15.90;;;7.22;;
58460;SDS011;45558;37.752;-97.822;2023-10-31T09:08:09;11.13;;;4.38;;
58460;SDS011;45558;37.752;-97.822;2023-10-31T09:10:36;6.18;;;4.70;;
58460;SDS011;45558;37.752;-97.822;2023-10-31T09:13:04;7.60;;;3.15;;
58460;SDS011;45558;37.752;-97.822;2023-10-31T09:15:31;7.72;;;4.38;;
58460;SDS011;45558;37.752;-97.822;2023-10-31T09:17:57;6.55;;;3.80;;
58460;SDS011;45558;37.752;-97.822;2023-10-31T09:20:24;4.68;;;3.00;;
58460;SDS011;45558;37.752;-97.822;2023-10-31T09:22:49;5.93;;;2.90;;
58460;SDS011;45558;37.752;-97.822;2023-10-31T09:25:15;3.97;;;2.92;;
58460;SDS011;45558;37.752;-97.822;2023-10-31T09:27:43;10.73;;;3.00;;
58460;SDS011;45558;37.752;-97.822;2023-10-31T09:30:08;8.35;;;2.97;;
58460;SDS011;45558;37.752;-97.822;2023-10-31T09:32:34;9.57;;;3.35;;
58460;SDS011;45558;37.752;-97.822;2023-10-31T09:35:00;4.72;;;3.13;;
58460;SDS011;45558;37.752;-97.822;2023-10-31T09:37:26;9.80;;;4.35;;
58460;SDS011;45558;37.752;-97.822;2023-10-31T09:39:51;5.93;;;3.55;;
58460;SDS011;45558;37.752;-97.822;2023-10-31T09:42:18;5.82;;;2.85;;
58460;SDS011;45558;37.752;-97.822;2023-10-31T09:44:43;7.55;;;4.28;;
58460;SDS011;45558;37.752;-97.822;2023-10-31T09:47:09;7.40;;;3.25;;
58460;SDS011;45558;37.752;-97.822;2023-10-31T09:49:34;6.45;;;4.03;;
58460;SDS011;45558;37.752;-97.822;2023-10-31T09:52:00;8.45;;;3.28;;
58460;SDS011;45558;37.752;-97.822;2023-10-31T09:54:26;4.68;;;3.00;;
58460;SDS011;45558;37.752;-97.822;2023-10-31T09:56:53;11.38;;;3.20;;
58460;SDS011;45558;37.752;-97.822;2023-10-31T09:59:19;7.10;;;3.75;;
58460;SDS011;45558;37.752;-97.822;2023-10-31T10:01:45;8.45;;;3.20;;
58460;SDS011;45558;37.752;-97.822;2023-10-31T10:04:10;6.30;;;2.00;;
58460;SDS011;45558;37.752;-97.822;2023-10-31T10:06:39;3.53;;;2.30;;
58460;SDS011;45558;37.752;-97.822;2023-10-31T10:09:13;3.63;;;2.40;;
58460;SDS011;45558;37.752;-97.822;2023-10-31T10:11:41;6.22;;;2.20;;
58460;SDS011;45558;37.752;-97.822;2023-10-31T10:14:06;10.15;;;2.33;;
58460;SDS011;45558;37.752;-97.822;2023-10-31T10:16:35;4.03;;;2.08;;
58460;SDS011;45558;37.752;-97.822;2023-10-31T10:19:20;5.18;;;2.33;;
58460;SDS011;45558;37.752;-97.822;2023-10-31T10:21:50;5.03;;;1.70;;
58460;SDS011;45558;37.752;-97.822;2023-10-31T10:24:23;5.47;;;2.70;;
58460;SDS011;45558;37.752;-97.822;2023-10-31T10:26:52;3.20;;;1.98;;
58460;SDS011;45558;37.752;-97.822;2023-10-31T10:29:18;2.45;;;1.75;;
58460;SDS011;45558;37.752;-97.822;2023-10-31T10:31:44;8.35;;;2.30;;
58460;SDS011;45558;37.752;-97.822;2023-10-31T10:34:10;4.75;;;1.55;;
58460;SDS011;45558;37.752;-97.822;2023-10-31T10:36:37;5.60;;;2.72;;
58460;SDS011;45558;37.752;-97.822;2023-10-31T10:39:03;3.20;;;1.83;;
58460;SDS011;45558;37.752;-97.822;2023-10-31T10:41:31;5.53;;;2.70;;
58460;SDS011;45558;37.752;-97.822;2023-10-31T10:44:06;3.00;;;2.47;;
58460;SDS011;45558;37.752;-97.822;2023-10-31T10:46:35;10.20;;;6.38;;
58460;SDS011;45558;37.752;-97.822;2023-10-31T10:49:05;10.27;;;4.07;;
58460;SDS011;45558;37.752;-97.822;2023-10-31T10:54:52;11.38;;;6.40;;
58460;SDS011;45558;37.752;-97.822;2023-10-31T10:59:55;5.05;;;4.43;;
58460;SDS011;45558;37.752;-97.822;2023-10-31T11:02:24;5.93;;;3.53;;
58460;SDS011;45558;37.752;-97.822;2023-10-31T11:04:50;8.60;;;4.15;;
58460;SDS011;45558;37.752;-97.822;2023-10-31T11:07:17;6.57;;;4.43;;
58460;SDS011;45558;37.752;-97.822;2023-10-31T11:09:44;7.97;;;4.00;;
58460;SDS011;45558;37.752;-97.822;2023-10-31T11:12:11;6.50;;;4.05;;
58460;SDS011;45558;37.752;-97.822;2023-10-31T11:14:37;6.10;;;4.00;;
58460;SDS011;45558;37.752;-97.822;2023-10-31T11:17:06;11.80;;;6.82;;
58460;SDS011;45558;37.752;-97.822;2023-10-31T11:19:36;5.38;;;4.00;;
58460;SDS011;45558;37.752;-97.822;2023-10-31T11:22:03;8.48;;;4.70;;
58460;SDS011;45558;37.752;-97.822;2023-10-31T11:24:32;6.50;;;4.07;;
58460;SDS011;45558;37.752;-97.822;2023-10-31T11:27:00;9.73;;;4.10;;
58460;SDS011;45558;37.752;-97.822;2023-10-31T11:29:26;39.95;;;23.60;;
58460;SDS011;45558;37.752;-97.822;2023-10-31T11:31:56;7.68;;;5.68;;
58460;SDS011;45558;37.752;-97.822;2023-10-31T11:34:21;6.72;;;3.50;;
58460;SDS011;45558;37.752;-97.822;2023-10-31T11:36:47;6.90;;;3.60;;
58460;SDS011;45558;37.752;-97.822;2023-10-31T11:39:14;8.57;;;6.20;;
58460;SDS011;45558;37.752;-97.822;2023-10-31T11:41:45;16.13;;;9.30;;
58460;SDS011;45558;37.752;-97.822;2023-10-31T11:44:14;6.22;;;3.70;;
58460;SDS011;45558;37.752;-97.822;2023-10-31T11:46:40;5.80;;;4.35;;
58460;SDS011;45558;37.752;-97.822;2023-10-31T11:49:06;9.75;;;4.50;;
58460;SDS011;45558;37.752;-97.822;2023-10-31T11:51:32;6.45;;;3.65;;
58460;SDS011;45558;37.752;-97.822;2023-10-31T11:53:58;5.20;;;3.03;;
58460;SDS011;45558;37.752;-97.822;2023-10-31T11:56:25;9.02;;;5.43;;
58460;SDS011;45558;37.752;-97.822;2023-10-31T11:59:00;16.98;;;10.75;;
58460;SDS011;45558;37.752;-97.822;2023-10-31T12:01:27;8.15;;;3.90;;
58460;SDS011;45558;37.752;-97.822;2023-10-31T12:03:53;14.15;;;5.07;;
58460;SDS011;45558;37.752;-97.822;2023-10-31T12:06:19;13.77;;;5.47;;
58460;SDS011;45558;37.752;-97.822;2023-10-31T12:08:46;8.57;;;4.60;;
58460;SDS011;45558;37.752;-97.822;2023-10-31T12:13:56;9.00;;;3.83;;
58460;SDS011;45558;37.752;-97.822;2023-10-31T12:16:23;6.43;;;3.90;;
58460;SDS011;45558;37.752;-97.822;2023-10-31T12:18:54;7.53;;;4.50;;
58460;SDS011;45558;37.752;-97.822;2023-10-31T12:24:09;5.70;;;2.55;;
58460;SDS011;45558;37.752;-97.822;2023-10-31T12:26:35;3.97;;;2.80;;
58460;SDS011;45558;37.752;-97.822;2023-10-31T12:29:11;13.18;;;7.90;;
58460;SDS011;45558;37.752;-97.822;2023-10-31T12:31:48;7.68;;;3.88;;
58460;SDS011;45558;37.752;-97.822;2023-10-31T12:34:18;7.45;;;4.28;;
58460;SDS011;45558;37.752;-97.822;2023-10-31T12:36:45;13.13;;;3.03;;
58460;SDS011;45558;37.752;-97.822;2023-10-31T12:39:13;7.63;;;2.83;;
58460;SDS011;45558;37.752;-97.822;2023-10-31T12:41:40;23.00;;;2.45;;
58460;SDS011;45558;37.752;-97.822;2023-10-31T12:44:06;24.45;;;6.15;;
58460;SDS011;45558;37.752;-97.822;2023-10-31T12:46:38;3.47;;;2.80;;
58460;SDS011;45558;37.752;-97.822;2023-10-31T12:49:04;9.10;;;2.63;;
58460;SDS011;45558;37.752;-97.822;2023-10-31T12:51:29;2.92;;;1.65;;
58460;SDS011;45558;37.752;-97.822;2023-10-31T12:53:55;8.35;;;2.17;;
58460;SDS011;45558;37.752;-97.822;2023-10-31T12:56:41;6.78;;;2.03;;
58460;SDS011;45558;37.752;-97.822;2023-10-31T12:59:07;11.23;;;3.53;;
58460;SDS011;45558;37.752;-97.822;2023-10-31T13:01:47;18.95;;;8.48;;
58460;SDS011;45558;37.752;-97.822;2023-10-31T13:04:12;10.63;;;4.15;;
58460;SDS011;45558;37.752;-97.822;2023-10-31T13:09:29;5.95;;;1.30;;
58460;SDS011;45558;37.752;-97.822;2023-10-31T13:12:06;17.10;;;9.82;;
58460;SDS011;45558;37.752;-97.822;2023-10-31T13:14:32;6.38;;;2.47;;
58460;SDS011;45558;37.752;-97.822;2023-10-31T13:16:58;9.10;;;3.38;;
58460;SDS011;45558;37.752;-97.822;2023-10-31T13:19:24;2.67;;;1.45;;
58460;SDS011;45558;37.752;-97.822;2023-10-31T13:21:49;4.65;;;1.35;;
58460;SDS011;45558;37.752;-97.822;2023-10-31T13:24:15;2.28;;;1.15;;
58460;SDS011;45558;37.752;-97.822;2023-10-31T13:26:40;3.55;;;1.23;;
58460;SDS011;45558;37.752;-97.822;2023-10-31T13:29:06;5.60;;;1.08;;
58460;SDS011;45558;37.752;-97.822;2023-10-31T13:31:31;5.30;;;1.30;;
58460;SDS011;45558;37.752;-97.822;2023-10-31T13:33:56;3.05;;;0.88;;
58460;SDS011;45558;37.752;-97.822;2023-10-31T13:36:22;14.30;;;2.83;;
58460;SDS011;45558;37.752;-97.822;2023-10-31T13:38:47;9.35;;;1.00;;
58460;SDS011;45558;37.752;-97.822;2023-10-31T13:41:13;1.70;;;0.60;;
58460;SDS011;45558;37.752;-97.822;2023-10-31T13:43:39;7.70;;;1.73;;
58460;SDS011;45558;37.752;-97.822;2023-10-31T13:46:04;5.07;;;1.58;;
58460;SDS011;45558;37.752;-97.822;2023-10-31T13:48:31;5.10;;;1.15;;
58460;SDS011;45558;37.752;-97.822;2023-10-31T13:50:56;11.32;;;5.38;;
58460;SDS011;45558;37.752;-97.822;2023-10-31T13:53:22;5.65;;;3.22;;
58460;SDS011;45558;37.752;-97.822;2023-10-31T13:55:47;4.93;;;2.00;;
58460;SDS011;45558;37.752;-97.822;2023-10-31T13:58:13;32.42;;;16.40;;
58460;SDS011;45558;37.752;-97.822;2023-10-31T14:00:39;4.22;;;0.90;;
58460;SDS011;45558;37.752;-97.822;2023-10-31T14:03:04;4.15;;;1.88;;
58460;SDS011;45558;37.752;-97.822;2023-10-31T14:05:30;3.95;;;1.45;;
58460;SDS011;45558;37.752;-97.822;2023-10-31T14:07:56;4.13;;;0.70;;
58460;SDS011;45558;37.752;-97.822;2023-10-31T14:10:21;3.75;;;0.90;;
58460;SDS011;45558;37.752;-97.822;2023-10-31T14:12:49;2.67;;;0.82;;